MV Causeway Supplier — ZR2426 — position and weather

sailwx.info

Track history (hours):
 
Tides and Currents Weather Stations Pressure Air Temp Water Temp Dewpoint Dewpoint Depression Visibility Wind Speed Wind Dir Waves Ship Positions

MV Causeway Supplier

Last reported at 2014-Dec-20 13:31 UTC. Time now 2014-Dec-21 00:25 UTC.
Position S 29°54' E 031°00'.

Length 22 m; draft 2.7 m.

Type: . MMSI: 601041200.

Date/timePositionNaut miles runAvg speedWind from/ knotsBaromVisibWave heightAir tempDewpointWater temp
2014-Dec-20 13:31S 29°54' E 031°00'2 2.4
2014-Dec-20 12:34S 29°52' E 031°02'8 7.5
2014-Dec-20 11:34S 29°49' E 031°10'2 1.7
2014-Dec-20 10:33S 29°49' E 031°11'3 2.9
2014-Dec-20 09:33S 29°48' E 031°08'1 1.3
2014-Dec-20 08:33S 29°49' E 031°08'5 4.6
2014-Dec-20 07:33S 29°52' E 031°04'3 2.8
2014-Dec-20 06:33S 29°52' E 031°01'2 1.8
2014-Dec-20 05:25S 29°54' E 031°00'0 0.0
2014-Dec-20 04:33S 29°54' E 031°00'0 0.0
2014-Dec-20 03:33S 29°54' E 031°00'0 0.0
2014-Dec-18 16:19S 29°54' E 031°00'4 5.7
2014-Dec-18 15:33S 29°52' E 031°05'6 5.6
2014-Dec-18 14:33S 29°53' E 031°11'0 0.4
2014-Dec-18 13:33S 29°53' E 031°10'3 3.0
2014-Dec-18 12:34S 29°53' E 031°07'6 5.9
2014-Dec-18 11:33S 29°54' E 031°00'0 0.1
2014-Dec-18 10:30S 29°54' E 031°00'0 0.0
2014-Dec-18 09:24S 29°54' E 031°00'0 0.0
2014-Dec-18 08:31S 29°54' E 031°00'0 0.0
2014-Dec-18 07:33S 29°54' E 031°00'0 0.0
2014-Dec-17 15:31S 29°54' E 031°00'0 0.0
2014-Dec-17 14:25S 29°54' E 031°00'0 0.0
2014-Dec-17 13:33S 29°54' E 031°00'0 0.0
2014-Dec-16 08:32S 29°54' E 031°00'0 0.0
2014-Dec-16 07:33S 29°54' E 031°00'0 0.0
2014-Dec-16 06:33S 29°54' E 031°00'0 0.0
2014-Dec-16 05:33S 29°54' E 031°00'0 0.0
2014-Dec-16 04:29S 29°54' E 031°00'0 0.0
2014-Dec-16 03:32S 29°54' E 031°00'0 0.0
2014-Dec-16 02:33S 29°54' E 031°00'0 0.0
2014-Dec-16 01:33S 29°54' E 031°00'0 0.0
2014-Dec-15 13:17S 29°54' E 031°00'2 3.3
2014-Dec-15 12:33S 29°52' E 031°02'7 7.0
2014-Dec-15 11:34S 29°48' E 031°09'2 2.5
2014-Dec-15 10:33S 29°47' E 031°11'1 0.8
2014-Dec-15 09:33S 29°48' E 031°11'1 0.8
2014-Dec-15 08:33S 29°49' E 031°11'1 0.8
2014-Dec-15 07:33S 29°49' E 031°10'3 2.9
2014-Dec-15 06:33S 29°50' E 031°07'5 5.0
2014-Dec-15 05:33S 29°52' E 031°02'2 1.9
2014-Dec-15 04:22S 29°54' E 031°00'0 0.0
2014-Dec-15 03:33S 29°54' E 031°00'0 0.0
2014-Dec-13 14:03S 29°54' E 031°00'0 0.0
2014-Dec-13 13:33S 29°54' E 031°00'0 0.0
2014-Dec-13 12:33S 29°54' E 031°00'0 0.0
2014-Dec-13 11:33S 29°54' E 031°00'0 0.0
2014-Dec-13 10:33S 29°54' E 031°00'0 0.0
2014-Dec-13 09:33S 29°54' E 031°00'0 0.0
2014-Dec-12 07:33S 29°54' E 031°00'0 0.0
2014-Dec-12 06:33S 29°54' E 031°00'0 0.0
2014-Dec-12 05:32S 29°54' E 031°00'0 0.0
2014-Dec-11 12:33S 29°54' E 031°00'0 0.0
2014-Dec-11 11:34S 29°54' E 031°00'0 0.0
2014-Dec-11 10:33S 29°54' E 031°00'0 0.0
2014-Dec-11 09:33S 29°54' E 031°00'0 0.0
2014-Dec-11 08:33S 29°54' E 031°00'0 0.0
2014-Dec-11 07:33S 29°54' E 031°00'0 0.0
2014-Dec-11 06:32S 29°54' E 031°00'  
Track history (hours):
 
Tides and Currents Weather Stations Pressure Air Temp Water Temp Dewpoint Dewpoint Depression Visibility Wind Speed Wind Dir Waves Ship Positions

MV Causeway Supplier

Last reported at 2014-Dec-20 13:31 UTC. Time now 2014-Dec-21 00:25 UTC.
Position S 29°54' E 031°00'.

Length 22 m; draft 2.7 m.

Type: . MMSI: 601041200.

Date/timePositionNaut miles runAvg speedWind from/ knotsBaromVisibWave heightAir tempDewpointWater temp
2014-Dec-20 13:31S 29°54' E 031°00'2 2.4
2014-Dec-20 12:34S 29°52' E 031°02'8 7.5
2014-Dec-20 11:34S 29°49' E 031°10'2 1.7
2014-Dec-20 10:33S 29°49' E 031°11'3 2.9
2014-Dec-20 09:33S 29°48' E 031°08'1 1.3
2014-Dec-20 08:33S 29°49' E 031°08'5 4.6
2014-Dec-20 07:33S 29°52' E 031°04'3 2.8
2014-Dec-20 06:33S 29°52' E 031°01'2 1.8
2014-Dec-20 05:25S 29°54' E 031°00'0 0.0
2014-Dec-20 04:33S 29°54' E 031°00'0 0.0
2014-Dec-20 03:33S 29°54' E 031°00'0 0.0
2014-Dec-18 16:19S 29°54' E 031°00'4 5.7
2014-Dec-18 15:33S 29°52' E 031°05'6 5.6
2014-Dec-18 14:33S 29°53' E 031°11'0 0.4
2014-Dec-18 13:33S 29°53' E 031°10'3 3.0
2014-Dec-18 12:34S 29°53' E 031°07'6 5.9
2014-Dec-18 11:33S 29°54' E 031°00'0 0.1
2014-Dec-18 10:30S 29°54' E 031°00'0 0.0
2014-Dec-18 09:24S 29°54' E 031°00'0 0.0
2014-Dec-18 08:31S 29°54' E 031°00'0 0.0
2014-Dec-18 07:33S 29°54' E 031°00'0 0.0
2014-Dec-17 15:31S 29°54' E 031°00'0 0.0
2014-Dec-17 14:25S 29°54' E 031°00'0 0.0
2014-Dec-17 13:33S 29°54' E 031°00'0 0.0
2014-Dec-16 08:32S 29°54' E 031°00'0 0.0
2014-Dec-16 07:33S 29°54' E 031°00'0 0.0
2014-Dec-16 06:33S 29°54' E 031°00'0 0.0
2014-Dec-16 05:33S 29°54' E 031°00'0 0.0
2014-Dec-16 04:29S 29°54' E 031°00'0 0.0
2014-Dec-16 03:32S 29°54' E 031°00'0 0.0
2014-Dec-16 02:33S 29°54' E 031°00'0 0.0
2014-Dec-16 01:33S 29°54' E 031°00'0 0.0
2014-Dec-15 13:17S 29°54' E 031°00'2 3.3
2014-Dec-15 12:33S 29°52' E 031°02'7 7.0
2014-Dec-15 11:34S 29°48' E 031°09'2 2.5
2014-Dec-15 10:33S 29°47' E 031°11'1 0.8
2014-Dec-15 09:33S 29°48' E 031°11'1 0.8
2014-Dec-15 08:33S 29°49' E 031°11'1 0.8
2014-Dec-15 07:33S 29°49' E 031°10'3 2.9
2014-Dec-15 06:33S 29°50' E 031°07'5 5.0
2014-Dec-15 05:33S 29°52' E 031°02'2 1.9
2014-Dec-15 04:22S 29°54' E 031°00'0 0.0
2014-Dec-15 03:33S 29°54' E 031°00'0 0.0
2014-Dec-13 14:03S 29°54' E 031°00'0 0.0
2014-Dec-13 13:33S 29°54' E 031°00'0 0.0
2014-Dec-13 12:33S 29°54' E 031°00'0 0.0
2014-Dec-13 11:33S 29°54' E 031°00'0 0.0
2014-Dec-13 10:33S 29°54' E 031°00'0 0.0
2014-Dec-13 09:33S 29°54' E 031°00'0 0.0
2014-Dec-12 07:33S 29°54' E 031°00'0 0.0
2014-Dec-12 06:33S 29°54' E 031°00'0 0.0
2014-Dec-12 05:32S 29°54' E 031°00'0 0.0
2014-Dec-11 12:33S 29°54' E 031°00'0 0.0
2014-Dec-11 11:34S 29°54' E 031°00'0 0.0
2014-Dec-11 10:33S 29°54' E 031°00'0 0.0
2014-Dec-11 09:33S 29°54' E 031°00'0 0.0
2014-Dec-11 08:33S 29°54' E 031°00'0 0.0
2014-Dec-11 07:33S 29°54' E 031°00'0 0.0
2014-Dec-11 06:32S 29°54' E 031°00'  

Dump ship's entire track history